Time;durP1;ratioP1;P1;durP2;ratioP2;P2;SDS_P1;SDS_P2;PMS_P1;PMS_P2;Temp;Humidity;BMP_temperature;BMP_pressure;BME280_temperature;BME280_humidity;BME280_pressure;Samples;Min_cycle;Max_cycle;Signal;HPM_P1;HPM_P2
2023/08/14 00:01:38;;;;;;;;;;;;;;;22.23;64.69;97416.63;565455;250;67199;-72
2023/08/14 00:04:06;;;;;;;;;;;;;;;22.23;63.08;97408.59;565381;251;65072;-72
2023/08/14 00:06:33;;;;;;;;;;;;;;;22.23;63.33;97411.28;565446;251;62838;-72
2023/08/14 00:09:01;;;;;;;;;;;;;;;22.23;63.17;97413.16;565545;250;64956;-72
2023/08/14 00:11:28;;;;;;;;;;;;;;;22.23;63.95;97411.28;565484;250;66791;-72
2023/08/14 00:13:56;;;;;;;;;;;;;;;22.24;64.21;97412.91;565434;251;65084;-72
2023/08/14 00:16:25;;;;;;;;;;;;;;;22.23;65.22;97416.63;565442;251;67129;-72
2023/08/14 00:18:53;;;;;;;;;;;;;;;22.23;65.58;97421.98;565432;250;65008;-71
2023/08/14 00:21:20;;;;;;;;;;;;;;;22.23;66.20;97415.83;565472;251;64963;-71
2023/08/14 00:23:48;;;;;;;;;;;;;;;22.22;66.43;97412.36;565395;251;66879;-71
2023/08/14 00:26:15;;;;;;;;;;;;;;;22.21;66.17;97412.61;565444;251;67259;-71
2023/08/14 00:28:43;;;;;;;;;;;;;;;22.20;65.93;97422.52;565398;251;64882;-71
2023/08/14 00:31:10;;;;;;;;;;;;;;;22.20;66.23;97422.52;565465;251;65217;-71
2023/08/14 00:33:38;;;;;;;;;;;;;;;22.20;66.38;97417.17;565470;250;64867;-72
2023/08/14 00:36:05;;;;;;;;;;;;;;;22.20;66.38;97417.17;565444;251;62941;-71
2023/08/14 00:38:33;;;;;;;;;;;;;;;22.21;66.39;97415.30;565440;251;65024;-71
2023/08/14 00:41:02;;;;;;;;;;;;;;;22.20;66.22;97421.73;565452;251;44410;-71
2023/08/14 00:43:30;;;;;;;;;;;;;;;22.19;66.48;97415.58;565450;250;65595;-71
2023/08/14 00:45:58;;;;;;;;;;;;;;;22.19;66.46;97415.58;565584;250;64940;-71
2023/08/14 00:48:26;;;;;;;;;;;;;;;22.19;66.43;97409.42;565499;250;67139;-71
2023/08/14 00:50:56;;;;;;;;;;;;;;;22.19;66.49;97412.91;565562;250;63929;-71
2023/08/14 00:53:25;;;;;;;;;;;;;;;22.19;66.54;97410.22;565422;250;67198;-71
2023/08/14 00:55:53;;;;;;;;;;;;;;;22.19;66.48;97415.58;565414;251;64900;-71
2023/08/14 00:58:22;;;;;;;;;;;;;;;22.19;66.54;97417.45;565666;250;64890;-71
2023/08/14 01:00:50;;;;;;;;;;;;;;;22.17;66.59;97413.12;565433;251;67319;-71
2023/08/14 01:03:18;;;;;;;;;;;;;;;22.18;66.50;97408.63;565574;250;64882;-71
2023/08/14 01:05:46;;;;;;;;;;;;;;;22.19;66.33;97406.75;565453;251;65191;-71
2023/08/14 01:08:13;;;;;;;;;;;;;;;22.17;66.47;97413.12;565445;251;67148;-71
2023/08/14 01:10:45;;;;;;;;;;;;;;;22.17;66.44;97410.45;565557;250;67640;-71
2023/08/14 01:13:26;;;;;;;;;;;;;;;22.18;66.52;97405.95;565285;250;66092;-72
2023/08/14 01:15:56;;;;;;;;;;;;;;;22.18;66.37;97413.98;565382;250;67120;-71
2023/08/14 01:18:24;;;;;;;;;;;;;;;22.17;66.43;97409.66;565408;251;67352;-74
2023/08/14 01:20:56;;;;;;;;;;;;;;;22.17;66.40;97407.77;565383;250;65297;-74
2023/08/14 01:23:34;;;;;;;;;;;;;;;22.16;66.17;97402.70;562959;250;64960;-75
2023/08/14 01:26:01;;;;;;;;;;;;;;;22.17;66.43;97396.27;565434;250;67014;-75
2023/08/14 01:28:29;;;;;;;;;;;;;;;22.16;66.33;97395.47;565467;251;65154;-74
2023/08/14 01:30:57;;;;;;;;;;;;;;;22.16;66.23;97405.38;565428;251;67644;-75
2023/08/14 01:33:25;;;;;;;;;;;;;;;22.16;66.49;97400.03;565422;250;64889;-74
2023/08/14 01:35:54;;;;;;;;;;;;;;;22.16;66.18;97402.70;565462;251;63873;-74
2023/08/14 01:38:23;;;;;;;;;;;;;;;22.16;66.26;97410.73;565209;251;66888;-75
2023/08/14 01:40:55;;;;;;;;;;;;;;;22.15;66.13;97406.44;565351;250;67082;-74
2023/08/14 01:43:24;;;;;;;;;;;;;;;22.16;66.40;97411.53;562465;251;64963;-74
2023/08/14 01:45:53;;;;;;;;;;;;;;;22.15;66.34;97401.91;565398;251;67436;-74
2023/08/14 01:48:23;;;;;;;;;;;;;;;22.15;65.92;97411.78;565604;250;64870;-74
2023/08/14 01:50:52;;;;;;;;;;;;;;;22.15;66.15;97417.97;565497;250;62867;-74
2023/08/14 01:53:19;;;;;;;;;;;;;;;22.15;65.94;97414.46;565748;250;67160;-74
2023/08/14 01:55:47;;;;;;;;;;;;;;;22.15;66.31;97409.11;565456;251;67000;-74
2023/08/14 01:58:14;;;;;;;;;;;;;;;22.15;66.20;97411.78;565654;250;62788;-75
2023/08/14 02:00:42;;;;;;;;;;;;;;;22.16;66.01;97410.73;565455;251;64944;-74
2023/08/14 02:03:09;;;;;;;;;;;;;;;22.14;65.87;97408.31;565502;250;65057;-74
2023/08/14 02:05:37;;;;;;;;;;;;;;;22.14;65.93;97402.95;565468;251;62846;-74
2023/08/14 02:08:05;;;;;;;;;;;;;;;22.14;65.75;97400.28;565518;250;67235;-74
2023/08/14 02:10:33;;;;;;;;;;;;;;;22.15;66.19;97409.94;565642;250;67034;-74
2023/08/14 02:13:00;;;;;;;;;;;;;;;22.14;66.17;97408.31;565479;251;64954;-74
2023/08/14 02:15:28;;;;;;;;;;;;;;;22.14;65.83;97402.95;565447;251;67114;-74
2023/08/14 02:17:57;;;;;;;;;;;;;;;22.13;66.17;97400.56;565638;250;65690;-74
2023/08/14 02:20:25;;;;;;;;;;;;;;;22.14;65.77;97407.52;565605;250;65105;-75
2023/08/14 02:22:53;;;;;;;;;;;;;;;22.14;66.29;97402.95;565429;250;68058;-75
2023/08/14 02:25:20;;;;;;;;;;;;;;;22.14;66.12;97407.52;565518;251;64613;-74
2023/08/14 02:27:48;;;;;;;;;;;;;;;22.13;66.09;97405.92;565452;251;64954;-74
2023/08/14 02:30:15;;;;;;;;;;;;;;;22.13;66.00;97409.39;565473;251;68073;-74
2023/08/14 02:32:44;;;;;;;;;;;;;;;22.13;65.98;97406.72;565433;251;64800;-74
2023/08/14 02:35:11;;;;;;;;;;;;;;;22.14;65.86;97405.64;565460;251;66166;-75
2023/08/14 02:37:39;;;;;;;;;;;;;;;22.14;66.17;97404.84;565530;250;67118;-74
2023/08/14 02:40:08;;;;;;;;;;;;;;;22.12;66.08;97399.74;565442;250;64336;-74
2023/08/14 02:42:36;;;;;;;;;;;;;;;22.13;66.02;97401.36;565557;250;62974;-75
2023/08/14 02:45:04;;;;;;;;;;;;;;;22.13;66.19;97401.36;565561;250;64999;-74
2023/08/14 02:47:31;;;;;;;;;;;;;;;22.13;66.02;97403.25;565591;250;64660;-74
2023/08/14 02:50:00;;;;;;;;;;;;;;;22.12;65.69;97402.42;565581;250;62540;-74
2023/08/14 02:52:28;;;;;;;;;;;;;;;22.13;65.93;97400.56;565410;250;66715;-74
2023/08/14 02:54:56;;;;;;;;;;;;;;;22.12;65.94;97405.09;565540;250;66588;-74
2023/08/14 02:57:23;;;;;;;;;;;;;;;22.14;66.03;97404.84;565452;251;62807;-74
2023/08/14 02:59:51;;;;;;;;;;;;;;;22.12;65.86;97406.97;565454;251;67133;-74
2023/08/14 03:02:18;;;;;;;;;;;;;;;22.13;65.85;97405.92;565517;251;64610;-74
2023/08/14 03:04:46;;;;;;;;;;;;;;;22.13;65.63;97406.72;565473;251;64976;-74
2023/08/14 03:07:13;;;;;;;;;;;;;;;22.12;65.89;97409.66;565529;250;66818;-74
2023/08/14 03:09:41;;;;;;;;;;;;;;;22.12;65.78;97410.45;565508;251;64657;-74
2023/08/14 03:12:09;;;;;;;;;;;;;;;22.13;65.81;97413.95;565498;251;62724;-74
2023/08/14 03:14:36;;;;;;;;;;;;;;;22.12;65.82;97409.66;565455;250;65031;-74
2023/08/14 03:17:04;;;;;;;;;;;;;;;22.12;65.75;97420.36;565502;251;64768;-74
2023/08/14 03:19:31;;;;;;;;;;;;;;;22.11;65.61;97408.85;565619;250;64920;-74
2023/08/14 03:21:59;;;;;;;;;;;;;;;22.11;65.54;97406.17;565392;251;67126;-74
2023/08/14 03:24:26;;;;;;;;;;;;;;;22.11;65.44;97406.17;565477;251;66961;-74
2023/08/14 03:26:54;;;;;;;;;;;;;;;22.11;65.68;97402.70;565543;250;63031;-74
2023/08/14 03:29:22;;;;;;;;;;;;;;;22.11;65.52;97406.17;565450;251;67530;-74
2023/08/14 03:31:50;;;;;;;;;;;;;;;22.11;65.61;97416.09;565387;251;67392;-74
2023/08/14 03:34:18;;;;;;;;;;;;;;;22.11;65.34;97419.56;565434;251;65796;-74
2023/08/14 03:36:45;;;;;;;;;;;;;;;22.12;65.35;97409.66;565500;250;67137;-74
2023/08/14 03:39:13;;;;;;;;;;;;;;;22.11;65.44;97413.41;565534;250;64229;-74
2023/08/14 03:41:41;;;;;;;;;;;;;;;22.11;65.44;97413.41;565462;250;64947;-74
2023/08/14 03:44:09;;;;;;;;;;;;;;;22.10;65.38;97411.81;565520;251;67115;-74
2023/08/14 03:46:36;;;;;;;;;;;;;;;22.11;65.34;97421.44;565471;250;67519;-74
2023/08/14 03:49:05;;;;;;;;;;;;;;;22.11;65.43;97418.77;565442;251;66174;-71
2023/08/14 03:51:32;;;;;;;;;;;;;;;22.10;65.39;97425.20;565493;250;64979;-71
2023/08/14 03:54:00;;;;;;;;;;;;;;;22.10;65.32;97428.67;565386;251;66934;-71
2023/08/14 03:56:27;;;;;;;;;;;;;;;22.10;65.41;97428.67;565465;250;64990;-71
2023/08/14 03:58:56;;;;;;;;;;;;;;;22.11;65.32;97426.80;565544;249;44197;-71
2023/08/14 04:01:24;;;;;;;;;;;;;;;22.10;65.62;97426.00;565463;251;67108;-71
2023/08/14 04:03:51;;;;;;;;;;;;;;;22.10;65.48;97425.20;565501;251;64974;-71
2023/08/14 04:06:22;;;;;;;;;;;;;;;22.10;65.42;97430.55;565588;250;64571;-71
2023/08/14 04:08:49;;;;;;;;;;;;;;;22.10;65.49;97431.34;565493;250;66905;-71
2023/08/14 04:11:17;;;;;;;;;;;;;;;22.09;65.33;97435.08;565391;251;62741;-71
2023/08/14 04:13:44;;;;;;;;;;;;;;;22.10;65.27;97435.91;565429;251;67423;-71
2023/08/14 04:16:12;;;;;;;;;;;;;;;22.10;65.19;97438.58;565446;251;67095;-71
2023/08/14 04:18:39;;;;;;;;;;;;;;;22.09;65.25;97443.11;565378;251;65213;-71
2023/08/14 04:21:07;;;;;;;;;;;;;;;22.10;65.21;97441.26;565394;251;67154;-71
2023/08/14 04:23:34;;;;;;;;;;;;;;;22.09;65.21;97442.31;565523;250;67034;-71
2023/08/14 04:26:02;;;;;;;;;;;;;;;22.09;65.15;97444.98;565435;251;63648;-71
2023/08/14 04:28:30;;;;;;;;;;;;;;;22.09;65.30;97447.66;565413;251;64914;-71
2023/08/14 04:30:57;;;;;;;;;;;;;;;22.09;65.29;97455.69;565362;251;67162;-71
2023/08/14 04:33:25;;;;;;;;;;;;;;;22.10;65.42;97451.97;565453;250;65782;-71
2023/08/14 04:35:53;;;;;;;;;;;;;;;22.08;65.37;97449.54;565481;250;67210;-71
2023/08/14 04:38:20;;;;;;;;;;;;;;;22.08;65.32;97451.42;565460;250;64864;-71
2023/08/14 04:40:49;;;;;;;;;;;;;;;22.08;64.92;97457.57;565578;250;43953;-71
2023/08/14 04:43:18;;;;;;;;;;;;;;;22.09;65.07;97463.72;565417;250;67678;-72
2023/08/14 04:45:46;;;;;;;;;;;;;;;22.08;64.84;97459.45;565417;250;66988;-71
2023/08/14 04:48:13;;;;;;;;;;;;;;;22.09;65.04;97463.72;565456;251;62779;-71
2023/08/14 04:50:41;;;;;;;;;;;;;;;22.07;64.85;97461.33;565444;251;64930;-72
2023/08/14 04:53:09;;;;;;;;;;;;;;;22.08;64.96;97472.83;565582;250;64525;-72
2023/08/14 04:55:38;;;;;;;;;;;;;;;22.07;64.98;97466.69;565475;251;41583;-72
2023/08/14 04:58:06;;;;;;;;;;;;;;;22.08;64.61;97467.48;565433;251;67631;-71
2023/08/14 05:00:35;;;;;;;;;;;;;;;22.07;64.30;97472.03;565487;250;64777;-75
2023/08/14 05:03:04;;;;;;;;;;;;;;;22.07;64.32;97464.00;565578;250;46774;-74
2023/08/14 05:05:33;;;;;;;;;;;;;;;22.06;64.57;97459.70;565473;251;50694;-75
2023/08/14 05:08:01;;;;;;;;;;;;;;;22.07;64.48;97469.36;565406;250;65672;-75
2023/08/14 05:10:28;;;;;;;;;;;;;;;22.06;64.67;97467.73;565511;250;63789;-75
2023/08/14 05:12:57;;;;;;;;;;;;;;;22.07;64.68;97471.20;565477;251;64869;-75
2023/08/14 05:15:24;;;;;;;;;;;;;;;22.06;64.71;97467.73;565420;251;66953;-75
2023/08/14 05:17:52;;;;;;;;;;;;;;;22.06;64.68;97470.41;565459;251;62815;-75
2023/08/14 05:20:19;;;;;;;;;;;;;;;22.06;64.86;97470.41;565457;250;64745;-75
2023/08/14 05:22:47;;;;;;;;;;;;;;;22.05;64.79;97476.05;565447;250;64847;-75
2023/08/14 05:25:15;;;;;;;;;;;;;;;22.05;64.74;97479.52;565442;250;65897;-75
2023/08/14 05:27:42;;;;;;;;;;;;;;;22.05;64.67;97478.72;565495;251;67433;-74
2023/08/14 05:30:10;;;;;;;;;;;;;;;22.06;64.67;97474.97;565466;251;65750;-74
2023/08/14 05:32:37;;;;;;;;;;;;;;;22.05;64.42;97484.88;565517;250;64918;-75
2023/08/14 05:35:05;;;;;;;;;;;;;;;22.06;64.50;97480.31;565591;250;65821;-74
2023/08/14 05:37:33;;;;;;;;;;;;;;;22.05;64.32;97489.43;565466;251;64980;-76
2023/08/14 05:40:00;;;;;;;;;;;;;;;22.06;64.62;97491.02;565498;251;62904;-74
2023/08/14 05:42:28;;;;;;;;;;;;;;;22.06;64.64;97491.82;565433;251;64932;-74
2023/08/14 05:44:55;;;;;;;;;;;;;;;22.04;64.71;97491.28;565556;250;64768;-74
2023/08/14 05:47:23;;;;;;;;;;;;;;;22.05;64.60;97489.43;565458;251;62832;-73
2023/08/14 05:49:50;;;;;;;;;;;;;;;22.05;64.44;97494.78;565436;250;64871;-73
2023/08/14 05:52:18;;;;;;;;;;;;;;;22.05;64.41;97497.45;565541;250;64988;-73
2023/08/14 05:54:45;;;;;;;;;;;;;;;22.05;64.56;97498.25;565392;251;64974;-74
2023/08/14 05:57:13;;;;;;;;;;;;;;;22.05;64.53;97494.78;565550;250;67011;-73
2023/08/14 05:59:40;;;;;;;;;;;;;;;22.05;64.50;97497.45;564981;250;66929;-71
2023/08/14 06:02:07;;;;;;;;;;;;;;;22.05;64.50;97497.45;565413;251;64921;-74
2023/08/14 06:04:37;;;;;;;;;;;;;;;22.04;64.43;97498.51;565672;250;67240;-73
2023/08/14 06:07:04;;;;;;;;;;;;;;;22.04;64.53;97507.33;564943;250;66698;-71
2023/08/14 06:09:32;;;;;;;;;;;;;;;22.04;64.46;97504.66;565252;251;65111;-72
2023/08/14 06:11:59;;;;;;;;;;;;;;;22.05;64.33;97497.45;565503;250;67344;-74
2023/08/14 06:14:26;;;;;;;;;;;;;;;22.04;64.52;97499.30;565429;250;67250;-72
2023/08/14 06:16:54;;;;;;;;;;;;;;;22.04;64.02;97501.19;565404;250;64939;-71
2023/08/14 06:19:21;;;;;;;;;;;;;;;22.04;63.91;97501.19;565179;248;64997;-73
2023/08/14 06:21:49;;;;;;;;;;;;;;;22.04;64.66;97493.95;564877;251;64872;-70
2023/08/14 06:24:16;;;;;;;;;;;;;;;22.04;61.00;97503.86;565412;251;62820;-68
2023/08/14 06:26:51;;;;;;;;;;;;;;;22.07;63.69;97496.13;564835;250;65032;-68
2023/08/14 06:29:17;;;;;;;;;;;;;;;22.09;62.89;97501.99;565202;250;67097;-68
2023/08/14 06:31:45;;;;;;;;;;;;;;;22.11;62.94;97499.06;565426;250;65115;-68
2023/08/14 06:34:13;;;;;;;;;;;;;;;22.12;62.82;97496.10;565232;250;67120;-72
2023/08/14 06:36:40;;;;;;;;;;;;;;;22.12;63.30;97492.63;565379;251;67029;-70
2023/08/14 06:39:07;;;;;;;;;;;;;;;22.11;63.12;97494.50;565407;251;64928;-68
2023/08/14 06:41:35;;;;;;;;;;;;;;;22.13;65.42;97494.25;565344;250;67367;-69
2023/08/14 06:44:04;;;;;;;;;;;;;;;22.13;66.10;97502.28;565527;250;51605;-69
2023/08/14 06:46:32;;;;;;;;;;;;;;;22.12;65.44;97495.30;564826;250;64971;-68
2023/08/14 06:48:59;;;;;;;;;;;;;;;22.11;61.60;97499.06;564568;251;67306;-68
2023/08/14 06:51:27;;;;;;;;;;;;;;;22.11;63.73;97504.41;564860;250;64969;-69
2023/08/14 06:53:54;;;;;;;;;;;;;;;22.10;63.44;97500.14;567158;250;63354;-73
2023/08/14 06:56:22;;;;;;;;;;;;;;;22.11;63.75;97504.41;567940;250;64688;-72
2023/08/14 06:58:50;;;;;;;;;;;;;;;22.11;64.12;97502.53;567905;249;64654;-68
2023/08/14 07:01:17;;;;;;;;;;;;;;;22.11;64.12;97502.53;567875;249;62955;-70
2023/08/14 07:03:45;;;;;;;;;;;;;;;22.10;64.01;97500.94;567884;249;64859;-69
2023/08/14 07:06:13;;;;;;;;;;;;;;;22.11;64.31;97502.53;569767;248;66592;-69
2023/08/14 07:08:40;;;;;;;;;;;;;;;22.12;64.74;97495.30;567797;249;65183;-68
2023/08/14 07:11:08;;;;;;;;;;;;;;;22.11;64.29;97499.06;568196;249;66870;-67
2023/08/14 07:13:35;;;;;;;;;;;;;;;22.11;64.15;97502.53;567776;249;66938;-68
2023/08/14 07:16:03;;;;;;;;;;;;;;;22.11;64.54;97507.89;567862;249;62907;-69
2023/08/14 07:18:30;;;;;;;;;;;;;;;22.11;64.20;97501.73;568252;249;64713;-72
2023/08/14 07:20:59;;;;;;;;;;;;;;;22.11;64.08;97504.41;569147;248;64676;-71
2023/08/14 07:23:27;;;;;;;;;;;;;;;22.10;64.28;97492.91;570379;248;63013;-68
2023/08/14 07:25:57;;;;;;;;;;;;;;;22.11;64.33;97499.86;570461;248;64817;-69
2023/08/14 07:28:25;;;;;;;;;;;;;;;22.11;64.37;97494.50;570445;248;67364;-66
2023/08/14 07:30:52;;;;;;;;;;;;;;;22.12;63.97;97489.95;570407;248;65046;-72
2023/08/14 07:33:20;;;;;;;;;;;;;;;22.12;64.52;97493.42;570457;248;65032;-68
2023/08/14 07:35:47;;;;;;;;;;;;;;;22.13;64.58;97486.22;570182;248;66840;-72
2023/08/14 07:38:15;;;;;;;;;;;;;;;22.13;65.03;97491.58;570168;248;63071;-71
2023/08/14 07:40:42;;;;;;;;;;;;;;;22.12;65.05;97479.25;568318;247;66899;-71
2023/08/14 07:43:10;;;;;;;;;;;;;;;22.13;64.83;97488.91;565377;251;67105;-70
2023/08/14 07:45:38;;;;;;;;;;;;;;;22.13;64.76;97484.34;565413;251;65054;-70
2023/08/14 07:48:05;;;;;;;;;;;;;;;22.14;64.58;97487.81;565223;251;67023;-69
2023/08/14 07:50:33;;;;;;;;;;;;;;;22.13;64.93;97487.02;565472;251;67073;-70
2023/08/14 07:53:00;;;;;;;;;;;;;;;22.13;64.84;97481.67;564388;251;64974;-70
2023/08/14 07:55:28;;;;;;;;;;;;;;;22.14;64.94;97485.14;562540;251;67498;-68
2023/08/14 07:57:55;;;;;;;;;;;;;;;22.14;65.03;97482.47;562616;252;65106;-72
2023/08/14 08:00:23;;;;;;;;;;;;;;;22.15;64.99;97478.70;562553;251;62796;-68
2023/08/14 08:02:51;;;;;;;;;;;;;;;22.15;64.84;97484.89;562583;252;67304;-77
2023/08/14 08:05:18;;;;;;;;;;;;;;;22.15;61.33;97481.38;562646;252;64500;-71
2023/08/14 08:07:46;;;;;;;;;;;;;;;22.20;58.98;97478.74;562405;252;64928;-73
2023/08/14 08:10:13;;;;;;;;;;;;;;;22.24;59.19;97481.71;562681;252;67151;-66
2023/08/14 08:12:42;;;;;;;;;;;;;;;22.27;61.06;97481.17;562578;252;66973;-69
2023/08/14 08:15:11;;;;;;;;;;;;;;;22.27;62.18;97481.97;562522;252;63110;-67
2023/08/14 08:17:39;;;;;;;;;;;;;;;22.28;61.60;97480.89;562347;252;67305;-67
2023/08/14 08:20:07;;;;;;;;;;;;;;;22.29;61.19;97490.55;562622;251;67026;-66
2023/08/14 08:22:35;;;;;;;;;;;;;;;22.31;61.14;97490.27;562597;252;65397;-68
2023/08/14 08:25:03;;;;;;;;;;;;;;;22.31;61.09;97488.38;562683;252;67292;-68
2023/08/14 08:27:30;;;;;;;;;;;;;;;22.33;62.43;97490.80;562647;252;64977;-69
2023/08/14 08:29:58;;;;;;;;;;;;;;;22.33;61.11;97480.89;562491;252;64888;-68
2023/08/14 08:32:25;;;;;;;;;;;;;;;22.36;59.20;97476.88;562412;252;67250;-67
2023/08/14 08:34:54;;;;;;;;;;;;;;;22.37;59.40;97486.50;562637;252;64354;-76
2023/08/14 08:37:22;;;;;;;;;;;;;;;22.37;59.62;97476.63;563800;251;65097;-69
2023/08/14 08:39:49;;;;;;;;;;;;;;;22.36;59.77;97474.20;565070;250;67243;-69
2023/08/14 08:42:18;;;;;;;;;;;;;;;22.34;59.80;97479.84;564826;250;67258;-72
2023/08/14 08:44:47;;;;;;;;;;;;;;;22.33;60.20;97475.53;564214;250;62937;-67
2023/08/14 08:47:17;;;;;;;;;;;;;;;22.33;60.49;97477.41;565481;251;47403;-75
2023/08/14 08:49:46;;;;;;;;;;;;;;;22.37;59.37;97471.27;561037;251;67074;-77
2023/08/14 08:52:14;;;;;;;;;;;;;;;22.37;59.74;97481.15;565329;251;65342;-78
2023/08/14 08:54:42;;;;;;;;;;;;;;;22.34;60.05;97471.80;565395;250;66301;-73
2023/08/14 08:57:11;;;;;;;;;;;;;;;22.34;59.87;97471.80;565349;250;64860;-76
2023/08/14 08:59:40;;;;;;;;;;;;;;;22.33;60.34;97480.89;565432;250;63942;-72
2023/08/14 09:02:09;;;;;;;;;;;;;;;22.33;62.62;97472.06;565419;250;66917;-76
2023/08/14 09:04:36;;;;;;;;;;;;;;;22.32;63.68;97473.94;565255;251;64943;-76
2023/08/14 09:07:04;;;;;;;;;;;;;;;22.31;63.42;97471.52;565432;250;62888;-76
2023/08/14 09:09:31;;;;;;;;;;;;;;;22.30;64.62;97468.05;564870;251;65193;-75
2023/08/14 09:11:59;;;;;;;;;;;;;;;22.29;64.65;97471.80;565246;250;64851;-74
2023/08/14 09:14:26;;;;;;;;;;;;;;;22.29;64.30;97474.48;565349;251;62904;-76
2023/08/14 09:16:54;;;;;;;;;;;;;;;22.28;63.97;97469.38;565111;250;65031;-74
2023/08/14 09:19:21;;;;;;;;;;;;;;;22.28;62.28;97472.06;564901;250;66911;-74
2023/08/14 09:21:49;;;;;;;;;;;;;;;22.28;61.80;97477.41;564901;250;63858;-74
2023/08/14 09:24:16;;;;;;;;;;;;;;;22.28;62.29;97464.83;564259;250;64964;-76
2023/08/14 09:26:44;;;;;;;;;;;;;;;22.29;63.86;97463.77;564819;250;64877;-75
2023/08/14 09:29:15;;;;;;;;;;;;;;;22.29;64.35;97465.62;565237;251;62917;-75
2023/08/14 09:31:44;;;;;;;;;;;;;;;22.27;64.68;97457.88;565404;250;65177;-77
2023/08/14 09:34:18;;;;;;;;;;;;;;;22.28;65.31;97461.34;565232;250;66925;-72
2023/08/14 09:36:47;;;;;;;;;;;;;;;22.28;65.82;97462.14;565246;250;65107;-70
2023/08/14 09:39:14;;;;;;;;;;;;;;;22.26;64.97;97453.60;564941;251;65000;-77
2023/08/14 09:41:43;;;;;;;;;;;;;;;22.27;65.29;97452.52;564678;249;66820;-77
2023/08/14 09:44:12;;;;;;;;;;;;;;;22.25;65.75;97446.63;564682;250;64923;-77
2023/08/14 09:46:40;;;;;;;;;;;;;;;22.25;65.71;97446.63;564830;250;64946;-77
2023/08/14 09:49:08;;;;;;;;;;;;;;;22.26;66.60;97445.57;565016;250;64620;-70
2023/08/14 09:51:36;;;;;;;;;;;;;;;22.25;65.50;97445.83;564974;250;65113;-75
2023/08/14 09:54:05;;;;;;;;;;;;;;;22.24;62.68;97436.20;564859;250;67283;-75
2023/08/14 09:56:32;;;;;;;;;;;;;;;22.27;62.61;97449.05;564913;251;65206;-76
2023/08/14 09:59:00;;;;;;;;;;;;;;;22.26;62.76;97453.60;565001;251;63071;-77
2023/08/14 10:01:27;;;;;;;;;;;;;;;22.27;62.88;97447.16;565111;250;67135;-76
2023/08/14 10:03:55;;;;;;;;;;;;;;;22.26;63.07;97440.22;565026;251;66901;-77
2023/08/14 10:06:23;;;;;;;;;;;;;;;22.26;61.74;97447.42;564537;248;65010;-78
2023/08/14 10:08:52;;;;;;;;;;;;;;;22.26;61.70;97437.54;566507;247;66952;-77
2023/08/14 10:11:20;;;;;;;;;;;;;;;22.27;62.10;97452.52;567968;248;66721;-74
2023/08/14 10:13:50;;;;;;;;;;;;;;;22.27;61.63;97443.69;568137;249;65027;-75
2023/08/14 10:16:19;;;;;;;;;;;;;;;22.27;61.47;97443.69;567933;248;64684;-76
2023/08/14 10:18:48;;;;;;;;;;;;;;;22.28;62.15;97447.96;568054;248;67625;-77
2023/08/14 10:21:16;;;;;;;;;;;;;;;22.28;61.81;97443.41;567164;249;64913;-77
2023/08/14 10:23:43;;;;;;;;;;;;;;;22.28;61.68;97434.58;564601;250;67364;-76
2023/08/14 10:26:11;;;;;;;;;;;;;;;22.27;61.71;97436.45;564944;250;64960;-80
2023/08/14 10:28:39;;;;;;;;;;;;;;;22.28;62.29;97435.38;564557;250;64976;-77
2023/08/14 10:31:09;;;;;;;;;;;;;;;22.28;61.88;97418.51;565378;250;67246;-77
2023/08/14 10:33:36;;;;;;;;;;;;;;;22.28;61.73;97421.19;565403;251;65122;-75
2023/08/14 10:36:04;;;;;;;;;;;;;;;22.28;61.62;97421.98;565428;250;63163;-76
2023/08/14 10:38:41;;;;;;;;;;;;;;;22.28;61.73;97418.51;565494;250;64979;-76
2023/08/14 10:41:09;;;;;;;;;;;;;;;22.29;61.85;97412.07;565885;248;67890;-76
2023/08/14 10:43:37;;;;;;;;;;;;;;;22.29;61.77;97420.11;568043;249;64936;-76
2023/08/14 10:46:09;;;;;;;;;;;;;;;22.28;61.66;97421.98;568125;249;67331;-76
2023/08/14 10:48:38;;;;;;;;;;;;;;;22.28;61.67;97424.66;567928;248;65578;-78
2023/08/14 10:51:08;;;;;;;;;;;;;;;22.28;61.79;97416.63;568104;249;62742;-72
2023/08/14 10:53:36;;;;;;;;;;;;;;;22.28;61.89;97421.98;567973;248;67208;-75
2023/08/14 10:56:07;;;;;;;;;;;;;;;22.29;62.06;97399.52;568051;250;64805;-75
2023/08/14 10:58:36;;;;;;;;;;;;;;;22.31;61.40;97417.97;568002;250;62878;-75
2023/08/14 11:01:05;;;;;;;;;;;;;;;22.30;61.66;97411.02;568093;250;67127;-78
2023/08/14 11:03:34;;;;;;;;;;;;;;;22.30;61.50;97405.66;568090;250;66313;-76
2023/08/14 11:06:02;;;;;;;;;;;;;;;22.30;62.43;97409.14;568044;250;65231;-77
2023/08/14 11:08:30;;;;;;;;;;;;;;;22.30;62.23;97406.46;568087;250;66956;-76
2023/08/14 11:10:58;;;;;;;;;;;;;;;22.29;62.06;97407.55;568026;250;66948;-76
2023/08/14 11:13:27;;;;;;;;;;;;;;;22.30;62.45;97402.98;568059;250;64946;-76
2023/08/14 11:15:55;;;;;;;;;;;;;;;22.29;61.63;97394.16;568100;250;65518;-78
2023/08/14 11:18:22;;;;;;;;;;;;;;;22.29;61.63;97398.69;568012;250;66665;-77
2023/08/14 11:20:50;;;;;;;;;;;;;;;22.29;61.59;97402.19;568031;250;65115;-78
2023/08/14 11:23:18;;;;;;;;;;;;;;;22.30;61.59;97395.75;568094;250;68114;-77
2023/08/14 11:25:45;;;;;;;;;;;;;;;22.32;61.66;97390.94;567999;250;64808;-75
2023/08/14 11:28:13;;;;;;;;;;;;;;;22.31;61.75;97389.31;568087;250;63666;-78
2023/08/14 11:30:40;;;;;;;;;;;;;;;22.32;61.63;97384.78;568043;250;65506;-78
2023/08/14 11:33:08;;;;;;;;;;;;;;;22.31;61.72;97375.12;568019;250;66798;-77
2023/08/14 11:35:35;;;;;;;;;;;;;;;22.31;61.72;97378.60;568023;250;64937;-76
2023/08/14 11:38:03;;;;;;;;;;;;;;;22.31;61.67;97370.57;568075;250;67387;-76
2023/08/14 11:40:32;;;;;;;;;;;;;;;22.31;61.72;97375.92;568002;250;64795;-76
2023/08/14 11:43:00;;;;;;;;;;;;;;;22.31;61.76;97375.92;568048;250;66224;-76
2023/08/14 11:45:27;;;;;;;;;;;;;;;22.32;61.60;97361.48;568060;250;66883;-77
2023/08/14 11:47:56;;;;;;;;;;;;;;;22.32;61.41;97358.02;567993;250;67005;-77
2023/08/14 11:50:23;;;;;;;;;;;;;;;22.32;61.51;97361.48;568086;250;65099;-76
2023/08/14 11:52:51;;;;;;;;;;;;;;;22.33;61.51;97354.25;568634;248;67305;-74
2023/08/14 11:55:18;;;;;;;;;;;;;;;22.33;61.40;97359.60;570362;248;64846;-77
2023/08/14 11:57:47;;;;;;;;;;;;;;;22.33;61.29;97357.72;570344;248;64915;-72
2023/08/14 12:00:15;;;;;;;;;;;;;;;22.33;61.53;97349.69;570402;248;67278;-77
2023/08/14 12:02:43;;;;;;;;;;;;;;;22.32;61.35;97347.30;570282;248;67019;-76
2023/08/14 12:05:10;;;;;;;;;;;;;;;22.33;61.48;97352.37;570406;248;64902;-76
2023/08/14 12:07:39;;;;;;;;;;;;;;;22.34;61.42;97342.45;570407;248;67241;-76
2023/08/14 12:10:10;;;;;;;;;;;;;;;22.34;61.42;97347.80;570386;248;67038;-77
2023/08/14 12:12:38;;;;;;;;;;;;;;;22.34;61.47;97347.80;570385;248;65285;-77
2023/08/14 12:15:06;;;;;;;;;;;;;;;22.33;61.49;97357.72;570309;248;67095;-75
2023/08/14 12:17:35;;;;;;;;;;;;;;;22.34;61.48;97345.95;570422;248;64604;-76
2023/08/14 12:20:08;;;;;;;;;;;;;;;22.33;61.37;97344.34;570396;248;62870;-72
2023/08/14 12:22:34;;;;;;;;;;;;;;;22.42;60.60;97336.55;570331;248;67215;-76
2023/08/14 12:25:04;;;;;;;;;;;;;;;22.41;60.81;97339.51;570362;248;65950;-76
2023/08/14 12:27:31;;;;;;;;;;;;;;;22.39;61.31;97348.59;570323;248;63685;-77
2023/08/14 12:29:58;;;;;;;;;;;;;;;22.39;61.44;97339.77;570335;248;67091;-79
2023/08/14 12:32:26;;;;;;;;;;;;;;;22.38;61.84;97344.33;570401;248;64814;-77
2023/08/14 12:34:54;;;;;;;;;;;;;;;22.36;60.96;97341.11;570362;248;62741;-75
2023/08/14 12:37:21;;;;;;;;;;;;;;;22.37;61.15;97340.05;570338;248;65839;-77
2023/08/14 12:39:55;;;;;;;;;;;;;;;22.37;60.77;97329.34;570427;248;64810;-79
2023/08/14 12:42:23;;;;;;;;;;;;;;;22.37;61.35;97329.34;570418;248;63179;-74
2023/08/14 12:44:53;;;;;;;;;;;;;;;22.36;60.27;97335.75;570307;248;64723;-78
2023/08/14 12:47:20;;;;;;;;;;;;;;;22.38;61.35;97338.17;570393;248;66958;-73
2023/08/14 12:49:48;;;;;;;;;;;;;;;22.37;61.08;97326.67;570360;246;66212;-73
2023/08/14 12:52:15;;;;;;;;;;;;;;;22.38;60.69;97335.50;570300;248;67293;-77